sensor_id;sensor_type;location;lat;lon;timestamp;P1;P2;P0
56175;PMS5003;63065;51.082;17.016;2022-10-31T00:01:39;65;59;
56175;PMS5003;63065;51.082;17.016;2022-10-31T00:04:05;56;49;
56175;PMS5003;63065;51.082;17.016;2022-10-31T00:06:30;63;58;
56175;PMS5003;63065;51.082;17.016;2022-10-31T00:08:55;59;56;
56175;PMS5003;63065;51.082;17.016;2022-10-31T00:11:25;62;58;
56175;PMS5003;63065;51.082;17.016;2022-10-31T00:13:45;67;62;
56175;PMS5003;63065;51.082;17.016;2022-10-31T00:16:14;68;61;
56175;PMS5003;63065;51.082;17.016;2022-10-31T00:18:37;64;56;
56175;PMS5003;63065;51.082;17.016;2022-10-31T00:21:03;58;57;
56175;PMS5003;63065;51.082;17.016;2022-10-31T00:23:28;61;56;
56175;PMS5003;63065;51.082;17.016;2022-10-31T00:25:54;63;61;
56175;PMS5003;63065;51.082;17.016;2022-10-31T00:28:21;67;60;
56175;PMS5003;63065;51.082;17.016;2022-10-31T00:30:44;68;63;
56175;PMS5003;63065;51.082;17.016;2022-10-31T00:33:11;66;62;
56175;PMS5003;63065;51.082;17.016;2022-10-31T00:35:36;60;57;
56175;PMS5003;63065;51.082;17.016;2022-10-31T00:38:01;55;54;
56175;PMS5003;63065;51.082;17.016;2022-10-31T00:40:27;62;57;
56175;PMS5003;63065;51.082;17.016;2022-10-31T00:42:53;54;54;
56175;PMS5003;63065;51.082;17.016;2022-10-31T00:45:18;53;52;
56175;PMS5003;63065;51.082;17.016;2022-10-31T00:47:43;58;52;
56175;PMS5003;63065;51.082;17.016;2022-10-31T00:50:09;60;58;
56175;PMS5003;63065;51.082;17.016;2022-10-31T00:52:35;66;60;
56175;PMS5003;63065;51.082;17.016;2022-10-31T00:55:00;63;57;
56175;PMS5003;63065;51.082;17.016;2022-10-31T00:57:25;51;48;
56175;PMS5003;63065;51.082;17.016;2022-10-31T00:59:51;59;52;
56175;PMS5003;63065;51.082;17.016;2022-10-31T01:02:16;56;52;
56175;PMS5003;63065;51.082;17.016;2022-10-31T01:04:41;61;54;
56175;PMS5003;63065;51.082;17.016;2022-10-31T01:07:06;55;52;
56175;PMS5003;63065;51.082;17.016;2022-10-31T01:09:32;57;49;
56175;PMS5003;63065;51.082;17.016;2022-10-31T01:11:57;61;55;
56175;PMS5003;63065;51.082;17.016;2022-10-31T01:14:23;59;52;
56175;PMS5003;63065;51.082;17.016;2022-10-31T01:16:48;58;55;
56175;PMS5003;63065;51.082;17.016;2022-10-31T01:19:13;56;52;
56175;PMS5003;63065;51.082;17.016;2022-10-31T01:21:39;57;56;
56175;PMS5003;63065;51.082;17.016;2022-10-31T01:24:04;61;54;
56175;PMS5003;63065;51.082;17.016;2022-10-31T01:26:30;61;56;
56175;PMS5003;63065;51.082;17.016;2022-10-31T01:28:56;55;51;
56175;PMS5003;63065;51.082;17.016;2022-10-31T01:31:22;55;50;
56175;PMS5003;63065;51.082;17.016;2022-10-31T01:33:47;51;51;
56175;PMS5003;63065;51.082;17.016;2022-10-31T01:36:12;64;57;
56175;PMS5003;63065;51.082;17.016;2022-10-31T01:38:37;53;49;
56175;PMS5003;63065;51.082;17.016;2022-10-31T01:41:03;59;50;
56175;PMS5003;63065;51.082;17.016;2022-10-31T01:45:53;56;53;
56175;PMS5003;63065;51.082;17.016;2022-10-31T01:48:20;54;48;
56175;PMS5003;63065;51.082;17.016;2022-10-31T01:50:45;54;51;
56175;PMS5003;63065;51.082;17.016;2022-10-31T01:53:10;55;49;
56175;PMS5003;63065;51.082;17.016;2022-10-31T01:55:37;53;49;
56175;PMS5003;63065;51.082;17.016;2022-10-31T01:58:03;52;48;
56175;PMS5003;63065;51.082;17.016;2022-10-31T02:00:26;53;50;
56175;PMS5003;63065;51.082;17.016;2022-10-31T02:02:52;48;43;
56175;PMS5003;63065;51.082;17.016;2022-10-31T02:05:18;58;53;
56175;PMS5003;63065;51.082;17.016;2022-10-31T02:07:45;50;45;
56175;PMS5003;63065;51.082;17.016;2022-10-31T02:10:09;60;54;
56175;PMS5003;63065;51.082;17.016;2022-10-31T02:12:35;56;53;
56175;PMS5003;63065;51.082;17.016;2022-10-31T02:15:00;50;46;
56175;PMS5003;63065;51.082;17.016;2022-10-31T02:17:25;57;47;
56175;PMS5003;63065;51.082;17.016;2022-10-31T02:19:51;53;51;
56175;PMS5003;63065;51.082;17.016;2022-10-31T02:22:19;55;49;
56175;PMS5003;63065;51.082;17.016;2022-10-31T02:24:45;48;45;
56175;PMS5003;63065;51.082;17.016;2022-10-31T02:27:08;59;53;
56175;PMS5003;63065;51.082;17.016;2022-10-31T02:29:39;57;51;
56175;PMS5003;63065;51.082;17.016;2022-10-31T02:31:59;52;51;
56175;PMS5003;63065;51.082;17.016;2022-10-31T02:34:24;55;51;
56175;PMS5003;63065;51.082;17.016;2022-10-31T02:36:51;49;48;
56175;PMS5003;63065;51.082;17.016;2022-10-31T02:39:16;56;52;
56175;PMS5003;63065;51.082;17.016;2022-10-31T02:41:42;50;49;
56175;PMS5003;63065;51.082;17.016;2022-10-31T02:44:06;50;46;
56175;PMS5003;63065;51.082;17.016;2022-10-31T02:46:32;52;51;
56175;PMS5003;63065;51.082;17.016;2022-10-31T02:48:57;56;49;
56175;PMS5003;63065;51.082;17.016;2022-10-31T02:51:21;53;48;
56175;PMS5003;63065;51.082;17.016;2022-10-31T02:53:47;44;42;
56175;PMS5003;63065;51.082;17.016;2022-10-31T02:56:13;52;47;
56175;PMS5003;63065;51.082;17.016;2022-10-31T02:58:38;50;43;
56175;PMS5003;63065;51.082;17.016;2022-10-31T03:01:08;59;52;
56175;PMS5003;63065;51.082;17.016;2022-10-31T03:03:29;56;51;
56175;PMS5003;63065;51.082;17.016;2022-10-31T03:05:55;52;50;
56175;PMS5003;63065;51.082;17.016;2022-10-31T03:08:21;51;48;
56175;PMS5003;63065;51.082;17.016;2022-10-31T03:10:46;53;50;
56175;PMS5003;63065;51.082;17.016;2022-10-31T03:13:12;48;45;
56175;PMS5003;63065;51.082;17.016;2022-10-31T03:15:37;58;53;
56175;PMS5003;63065;51.082;17.016;2022-10-31T03:18:03;55;51;
56175;PMS5003;63065;51.082;17.016;2022-10-31T03:20:28;48;48;
56175;PMS5003;63065;51.082;17.016;2022-10-31T03:22:53;53;46;
56175;PMS5003;63065;51.082;17.016;2022-10-31T03:25:18;50;47;
56175;PMS5003;63065;51.082;17.016;2022-10-31T03:27:44;48;47;
56175;PMS5003;63065;51.082;17.016;2022-10-31T03:30:09;52;47;
56175;PMS5003;63065;51.082;17.016;2022-10-31T03:32:35;61;53;
56175;PMS5003;63065;51.082;17.016;2022-10-31T03:35:01;57;53;
56175;PMS5003;63065;51.082;17.016;2022-10-31T03:37:25;43;41;
56175;PMS5003;63065;51.082;17.016;2022-10-31T03:39:51;46;46;
56175;PMS5003;63065;51.082;17.016;2022-10-31T03:42:18;50;46;
56175;PMS5003;63065;51.082;17.016;2022-10-31T03:44:43;52;44;
56175;PMS5003;63065;51.082;17.016;2022-10-31T03:47:07;49;46;
56175;PMS5003;63065;51.082;17.016;2022-10-31T03:49:33;54;48;
56175;PMS5003;63065;51.082;17.016;2022-10-31T03:52:01;44;43;
56175;PMS5003;63065;51.082;17.016;2022-10-31T03:54:25;53;47;
56175;PMS5003;63065;51.082;17.016;2022-10-31T03:56:51;47;43;
56175;PMS5003;63065;51.082;17.016;2022-10-31T03:59:16;48;45;
56175;PMS5003;63065;51.082;17.016;2022-10-31T04:01:42;44;40;
56175;PMS5003;63065;51.082;17.016;2022-10-31T04:04:06;52;50;
56175;PMS5003;63065;51.082;17.016;2022-10-31T04:06:32;52;49;
56175;PMS5003;63065;51.082;17.016;2022-10-31T04:08:58;46;42;
56175;PMS5003;63065;51.082;17.016;2022-10-31T04:11:24;40;40;
56175;PMS5003;63065;51.082;17.016;2022-10-31T04:13:48;55;49;
56175;PMS5003;63065;51.082;17.016;2022-10-31T04:16:14;45;41;
56175;PMS5003;63065;51.082;17.016;2022-10-31T04:18:39;54;48;
56175;PMS5003;63065;51.082;17.016;2022-10-31T04:21:05;44;44;
56175;PMS5003;63065;51.082;17.016;2022-10-31T04:23:30;53;47;
56175;PMS5003;63065;51.082;17.016;2022-10-31T04:25:55;45;40;
56175;PMS5003;63065;51.082;17.016;2022-10-31T04:28:21;48;44;
56175;PMS5003;63065;51.082;17.016;2022-10-31T04:30:46;55;45;
56175;PMS5003;63065;51.082;17.016;2022-10-31T04:33:11;49;44;
56175;PMS5003;63065;51.082;17.016;2022-10-31T04:35:36;44;43;
56175;PMS5003;63065;51.082;17.016;2022-10-31T04:38:02;49;48;
56175;PMS5003;63065;51.082;17.016;2022-10-31T04:40:27;46;40;
56175;PMS5003;63065;51.082;17.016;2022-10-31T04:42:53;59;51;
56175;PMS5003;63065;51.082;17.016;2022-10-31T04:45:18;54;50;
56175;PMS5003;63065;51.082;17.016;2022-10-31T04:47:44;46;46;
56175;PMS5003;63065;51.082;17.016;2022-10-31T04:50:09;45;42;
56175;PMS5003;63065;51.082;17.016;2022-10-31T04:52:38;49;43;
56175;PMS5003;63065;51.082;17.016;2022-10-31T04:54:59;44;42;
56175;PMS5003;63065;51.082;17.016;2022-10-31T04:57:25;50;42;
56175;PMS5003;63065;51.082;17.016;2022-10-31T04:59:50;50;46;
56175;PMS5003;63065;51.082;17.016;2022-10-31T05:02:16;48;46;
56175;PMS5003;63065;51.082;17.016;2022-10-31T05:04:41;49;46;
56175;PMS5003;63065;51.082;17.016;2022-10-31T05:07:06;48;45;
56175;PMS5003;63065;51.082;17.016;2022-10-31T05:09:32;43;42;
56175;PMS5003;63065;51.082;17.016;2022-10-31T05:11:57;52;48;
56175;PMS5003;63065;51.082;17.016;2022-10-31T05:14:22;50;48;
56175;PMS5003;63065;51.082;17.016;2022-10-31T05:16:48;54;49;
56175;PMS5003;63065;51.082;17.016;2022-10-31T05:19:13;49;47;
56175;PMS5003;63065;51.082;17.016;2022-10-31T05:21:38;50;47;
56175;PMS5003;63065;51.082;17.016;2022-10-31T05:24:05;47;44;
56175;PMS5003;63065;51.082;17.016;2022-10-31T05:26:30;50;48;
56175;PMS5003;63065;51.082;17.016;2022-10-31T05:28:56;52;47;
56175;PMS5003;63065;51.082;17.016;2022-10-31T05:31:21;49;46;
56175;PMS5003;63065;51.082;17.016;2022-10-31T05:33:47;53;50;
56175;PMS5003;63065;51.082;17.016;2022-10-31T05:36:12;52;45;
56175;PMS5003;63065;51.082;17.016;2022-10-31T05:38:37;42;39;
56175;PMS5003;63065;51.082;17.016;2022-10-31T05:41:03;52;47;
56175;PMS5003;63065;51.082;17.016;2022-10-31T05:43:28;46;43;
56175;PMS5003;63065;51.082;17.016;2022-10-31T05:45:54;53;49;
56175;PMS5003;63065;51.082;17.016;2022-10-31T05:48:19;55;50;
56175;PMS5003;63065;51.082;17.016;2022-10-31T05:50:46;39;39;
56175;PMS5003;63065;51.082;17.016;2022-10-31T05:53:11;50;46;
56175;PMS5003;63065;51.082;17.016;2022-10-31T05:55:36;44;41;
56175;PMS5003;63065;51.082;17.016;2022-10-31T05:58:01;55;48;
56175;PMS5003;63065;51.082;17.016;2022-10-31T06:00:27;54;52;
56175;PMS5003;63065;51.082;17.016;2022-10-31T06:02:57;48;44;
56175;PMS5003;63065;51.082;17.016;2022-10-31T06:05:17;43;39;
56175;PMS5003;63065;51.082;17.016;2022-10-31T06:07:42;46;44;
56175;PMS5003;63065;51.082;17.016;2022-10-31T06:10:08;50;48;
56175;PMS5003;63065;51.082;17.016;2022-10-31T06:12:34;42;42;
56175;PMS5003;63065;51.082;17.016;2022-10-31T06:14:59;49;48;
56175;PMS5003;63065;51.082;17.016;2022-10-31T06:17:25;50;45;
56175;PMS5003;63065;51.082;17.016;2022-10-31T06:19:50;51;47;
56175;PMS5003;63065;51.082;17.016;2022-10-31T06:22:15;44;42;
56175;PMS5003;63065;51.082;17.016;2022-10-31T06:24:41;47;45;
56175;PMS5003;63065;51.082;17.016;2022-10-31T06:27:07;45;42;
56175;PMS5003;63065;51.082;17.016;2022-10-31T06:29:32;50;44;
56175;PMS5003;63065;51.082;17.016;2022-10-31T06:31:57;47;41;
56175;PMS5003;63065;51.082;17.016;2022-10-31T06:34:22;42;41;
56175;PMS5003;63065;51.082;17.016;2022-10-31T06:36:47;51;45;
56175;PMS5003;63065;51.082;17.016;2022-10-31T06:39:13;49;46;
56175;PMS5003;63065;51.082;17.016;2022-10-31T06:41:38;41;38;
56175;PMS5003;63065;51.082;17.016;2022-10-31T06:44:04;49;45;
56175;PMS5003;63065;51.082;17.016;2022-10-31T06:46:29;44;42;
56175;PMS5003;63065;51.082;17.016;2022-10-31T06:48:54;58;52;
56175;PMS5003;63065;51.082;17.016;2022-10-31T06:51:20;47;45;
56175;PMS5003;63065;51.082;17.016;2022-10-31T06:53:46;46;43;
56175;PMS5003;63065;51.082;17.016;2022-10-31T06:56:11;50;45;
56175;PMS5003;63065;51.082;17.016;2022-10-31T06:58:36;48;46;
56175;PMS5003;63065;51.082;17.016;2022-10-31T07:01:02;57;47;
56175;PMS5003;63065;51.082;17.016;2022-10-31T07:03:28;53;48;
56175;PMS5003;63065;51.082;17.016;2022-10-31T07:05:54;43;40;
56175;PMS5003;63065;51.082;17.016;2022-10-31T07:08:19;56;51;
56175;PMS5003;63065;51.082;17.016;2022-10-31T07:10:50;50;49;
56175;PMS5003;63065;51.082;17.016;2022-10-31T07:13:12;47;42;
56175;PMS5003;63065;51.082;17.016;2022-10-31T07:15:37;37;37;
56175;PMS5003;63065;51.082;17.016;2022-10-31T07:18:02;42;39;
56175;PMS5003;63065;51.082;17.016;2022-10-31T07:20:28;47;40;
56175;PMS5003;63065;51.082;17.016;2022-10-31T07:22:54;43;38;
56175;PMS5003;63065;51.082;17.016;2022-10-31T07:25:19;40;36;
56175;PMS5003;63065;51.082;17.016;2022-10-31T07:27:44;43;39;
56175;PMS5003;63065;51.082;17.016;2022-10-31T07:30:11;43;39;
56175;PMS5003;63065;51.082;17.016;2022-10-31T07:32:38;37;33;
56175;PMS5003;63065;51.082;17.016;2022-10-31T07:35:00;43;39;
56175;PMS5003;63065;51.082;17.016;2022-10-31T07:37:27;49;44;
56175;PMS5003;63065;51.082;17.016;2022-10-31T07:39:51;41;34;
56175;PMS5003;63065;51.082;17.016;2022-10-31T07:42:17;46;41;
56175;PMS5003;63065;51.082;17.016;2022-10-31T07:44:42;39;38;
56175;PMS5003;63065;51.082;17.016;2022-10-31T07:47:08;37;34;
56175;PMS5003;63065;51.082;17.016;2022-10-31T07:49:33;36;33;
56175;PMS5003;63065;51.082;17.016;2022-10-31T07:51:58;35;32;
56175;PMS5003;63065;51.082;17.016;2022-10-31T07:54:23;33;31;
56175;PMS5003;63065;51.082;17.016;2022-10-31T07:56:49;35;34;
56175;PMS5003;63065;51.082;17.016;2022-10-31T07:59:14;33;33;
56175;PMS5003;63065;51.082;17.016;2022-10-31T08:01:40;28;28;
56175;PMS5003;63065;51.082;17.016;2022-10-31T08:04:05;41;39;
56175;PMS5003;63065;51.082;17.016;2022-10-31T08:06:31;41;39;
56175;PMS5003;63065;51.082;17.016;2022-10-31T08:08:56;41;37;
56175;PMS5003;63065;51.082;17.016;2022-10-31T08:11:21;37;35;
56175;PMS5003;63065;51.082;17.016;2022-10-31T08:13:47;35;32;
56175;PMS5003;63065;51.082;17.016;2022-10-31T08:16:13;33;30;
56175;PMS5003;63065;51.082;17.016;2022-10-31T08:18:38;23;22;
56175;PMS5003;63065;51.082;17.016;2022-10-31T08:21:03;27;27;
56175;PMS5003;63065;51.082;17.016;2022-10-31T08:23:28;26;26;
56175;PMS5003;63065;51.082;17.016;2022-10-31T08:25:53;31;28;
56175;PMS5003;63065;51.082;17.016;2022-10-31T08:28:19;25;25;
56175;PMS5003;63065;51.082;17.016;2022-10-31T08:30:45;28;25;
56175;PMS5003;63065;51.082;17.016;2022-10-31T08:33:11;26;25;
56175;PMS5003;63065;51.082;17.016;2022-10-31T08:35:35;23;20;
56175;PMS5003;63065;51.082;17.016;2022-10-31T08:38:01;40;37;
56175;PMS5003;63065;51.082;17.016;2022-10-31T08:40:26;27;25;
56175;PMS5003;63065;51.082;17.016;2022-10-31T08:45:17;24;22;
56175;PMS5003;63065;51.082;17.016;2022-10-31T08:47:42;24;21;
56175;PMS5003;63065;51.082;17.016;2022-10-31T08:50:08;22;22;
56175;PMS5003;63065;51.082;17.016;2022-10-31T08:52:34;28;23;
56175;PMS5003;63065;51.082;17.016;2022-10-31T08:54:59;23;22;
56175;PMS5003;63065;51.082;17.016;2022-10-31T08:57:25;25;24;
56175;PMS5003;63065;51.082;17.016;2022-10-31T08:59:50;24;23;
56175;PMS5003;63065;51.082;17.016;2022-10-31T09:02:15;21;21;
56175;PMS5003;63065;51.082;17.016;2022-10-31T09:04:41;20;19;
56175;PMS5003;63065;51.082;17.016;2022-10-31T09:07:07;22;21;
56175;PMS5003;63065;51.082;17.016;2022-10-31T09:09:32;21;18;
56175;PMS5003;63065;51.082;17.016;2022-10-31T09:11:57;29;20;
56175;PMS5003;63065;51.082;17.016;2022-10-31T09:14:24;19;19;
56175;PMS5003;63065;51.082;17.016;2022-10-31T09:16:49;25;21;
56175;PMS5003;63065;51.082;17.016;2022-10-31T09:19:14;18;18;
56175;PMS5003;63065;51.082;17.016;2022-10-31T09:21:40;27;23;
56175;PMS5003;63065;51.082;17.016;2022-10-31T09:24:06;18;17;
56175;PMS5003;63065;51.082;17.016;2022-10-31T09:26:31;17;16;
56175;PMS5003;63065;51.082;17.016;2022-10-31T09:28:57;14;14;
56175;PMS5003;63065;51.082;17.016;2022-10-31T09:31:22;18;18;
56175;PMS5003;63065;51.082;17.016;2022-10-31T09:33:48;19;17;
56175;PMS5003;63065;51.082;17.016;2022-10-31T09:36:13;17;17;
56175;PMS5003;63065;51.082;17.016;2022-10-31T09:38:38;14;13;
56175;PMS5003;63065;51.082;17.016;2022-10-31T09:41:06;16;14;
56175;PMS5003;63065;51.082;17.016;2022-10-31T09:43:31;17;17;
56175;PMS5003;63065;51.082;17.016;2022-10-31T09:45:57;18;17;
56175;PMS5003;63065;51.082;17.016;2022-10-31T09:48:24;17;14;
56175;PMS5003;63065;51.082;17.016;2022-10-31T09:50:47;18;16;
56175;PMS5003;63065;51.082;17.016;2022-10-31T09:53:15;18;16;
56175;PMS5003;63065;51.082;17.016;2022-10-31T09:55:39;17;15;
56175;PMS5003;63065;51.082;17.016;2022-10-31T09:58:02;16;15;
56175;PMS5003;63065;51.082;17.016;2022-10-31T10:00:28;17;17;
56175;PMS5003;63065;51.082;17.016;2022-10-31T10:02:56;16;15;
56175;PMS5003;63065;51.082;17.016;2022-10-31T10:05:19;16;13;
56175;PMS5003;63065;51.082;17.016;2022-10-31T10:07:44;13;12;
56175;PMS5003;63065;51.082;17.016;2022-10-31T10:10:13;19;17;
56175;PMS5003;63065;51.082;17.016;2022-10-31T10:12:39;17;17;
56175;PMS5003;63065;51.082;17.016;2022-10-31T10:15:06;14;13;
56175;PMS5003;63065;51.082;17.016;2022-10-31T10:17:29;16;14;
56175;PMS5003;63065;51.082;17.016;2022-10-31T10:22:19;19;16;
56175;PMS5003;63065;51.082;17.016;2022-10-31T10:24:50;16;16;
56175;PMS5003;63065;51.082;17.016;2022-10-31T10:27:11;20;16;
56175;PMS5003;63065;51.082;17.016;2022-10-31T10:29:35;13;13;
56175;PMS5003;63065;51.082;17.016;2022-10-31T10:31:58;21;20;
56175;PMS5003;63065;51.082;17.016;2022-10-31T10:34:24;14;14;
56175;PMS5003;63065;51.082;17.016;2022-10-31T10:36:51;20;18;
56175;PMS5003;63065;51.082;17.016;2022-10-31T10:39:15;18;16;
56175;PMS5003;63065;51.082;17.016;2022-10-31T10:41:41;17;15;
56175;PMS5003;63065;51.082;17.016;2022-10-31T10:44:07;16;16;
56175;PMS5003;63065;51.082;17.016;2022-10-31T10:46:32;16;16;
56175;PMS5003;63065;51.082;17.016;2022-10-31T10:48:57;15;15;
56175;PMS5003;63065;51.082;17.016;2022-10-31T10:51:22;16;16;
56175;PMS5003;63065;51.082;17.016;2022-10-31T10:53:51;18;17;
56175;PMS5003;63065;51.082;17.016;2022-10-31T10:56:14;17;16;
56175;PMS5003;63065;51.082;17.016;2022-10-31T10:58:38;15;15;
56175;PMS5003;63065;51.082;17.016;2022-10-31T11:01:08;17;14;
56175;PMS5003;63065;51.082;17.016;2022-10-31T11:03:28;15;15;
56175;PMS5003;63065;51.082;17.016;2022-10-31T11:05:55;17;16;
56175;PMS5003;63065;51.082;17.016;2022-10-31T11:08:23;16;14;
56175;PMS5003;63065;51.082;17.016;2022-10-31T11:10:45;13;12;
56175;PMS5003;63065;51.082;17.016;2022-10-31T11:13:19;14;14;
56175;PMS5003;63065;51.082;17.016;2022-10-31T11:15:37;16;15;
56175;PMS5003;63065;51.082;17.016;2022-10-31T11:18:02;14;14;
56175;PMS5003;63065;51.082;17.016;2022-10-31T11:20:29;16;15;
56175;PMS5003;63065;51.082;17.016;2022-10-31T11:25:22;15;14;
56175;PMS5003;63065;51.082;17.016;2022-10-31T11:27:45;18;16;
56175;PMS5003;63065;51.082;17.016;2022-10-31T11:30:11;20;18;
56175;PMS5003;63065;51.082;17.016;2022-10-31T11:32:36;17;14;
56175;PMS5003;63065;51.082;17.016;2022-10-31T11:35:02;15;15;
56175;PMS5003;63065;51.082;17.016;2022-10-31T11:37:27;22;21;
56175;PMS5003;63065;51.082;17.016;2022-10-31T11:39:53;13;13;
56175;PMS5003;63065;51.082;17.016;2022-10-31T11:42:19;16;16;
56175;PMS5003;63065;51.082;17.016;2022-10-31T11:44:44;17;17;
56175;PMS5003;63065;51.082;17.016;2022-10-31T11:47:10;19;17;
56175;PMS5003;63065;51.082;17.016;2022-10-31T11:49:35;15;14;
56175;PMS5003;63065;51.082;17.016;2022-10-31T11:52:00;16;16;
56175;PMS5003;63065;51.082;17.016;2022-10-31T11:54:25;14;14;
56175;PMS5003;63065;51.082;17.016;2022-10-31T11:56:50;16;13;
56175;PMS5003;63065;51.082;17.016;2022-10-31T11:59:18;16;15;
56175;PMS5003;63065;51.082;17.016;2022-10-31T12:01:45;20;16;
56175;PMS5003;63065;51.082;17.016;2022-10-31T12:04:07;17;17;
56175;PMS5003;63065;51.082;17.016;2022-10-31T12:06:33;17;14;
56175;PMS5003;63065;51.082;17.016;2022-10-31T12:08:57;16;15;
56175;PMS5003;63065;51.082;17.016;2022-10-31T12:11:30;16;16;
56175;PMS5003;63065;51.082;17.016;2022-10-31T12:13:51;20;18;
56175;PMS5003;63065;51.082;17.016;2022-10-31T12:16:15;12;10;
56175;PMS5003;63065;51.082;17.016;2022-10-31T12:18:45;15;13;
56175;PMS5003;63065;51.082;17.016;2022-10-31T12:21:09;22;21;
56175;PMS5003;63065;51.082;17.016;2022-10-31T12:23:33;22;18;
56175;PMS5003;63065;51.082;17.016;2022-10-31T12:25:57;14;14;
56175;PMS5003;63065;51.082;17.016;2022-10-31T12:28:27;18;17;
56175;PMS5003;63065;51.082;17.016;2022-10-31T12:30:49;14;13;
56175;PMS5003;63065;51.082;17.016;2022-10-31T12:33:16;17;15;
56175;PMS5003;63065;51.082;17.016;2022-10-31T12:35:40;13;13;
56175;PMS5003;63065;51.082;17.016;2022-10-31T12:38:05;14;14;
56175;PMS5003;63065;51.082;17.016;2022-10-31T12:40:33;14;14;
56175;PMS5003;63065;51.082;17.016;2022-10-31T12:42:55;21;20;
56175;PMS5003;63065;51.082;17.016;2022-10-31T12:45:25;13;13;
56175;PMS5003;63065;51.082;17.016;2022-10-31T12:47:50;19;17;
56175;PMS5003;63065;51.082;17.016;2022-10-31T12:50:16;19;15;
56175;PMS5003;63065;51.082;17.016;2022-10-31T12:52:38;19;15;
56175;PMS5003;63065;51.082;17.016;2022-10-31T12:55:03;16;16;
56175;PMS5003;63065;51.082;17.016;2022-10-31T12:57:27;14;14;
56175;PMS5003;63065;51.082;17.016;2022-10-31T12:59:50;17;15;
56175;PMS5003;63065;51.082;17.016;2022-10-31T13:02:18;19;18;
56175;PMS5003;63065;51.082;17.016;2022-10-31T13:04:42;14;14;
56175;PMS5003;63065;51.082;17.016;2022-10-31T13:07:09;15;15;
56175;PMS5003;63065;51.082;17.016;2022-10-31T13:09:33;19;17;
56175;PMS5003;63065;51.082;17.016;2022-10-31T13:11:59;16;14;
56175;PMS5003;63065;51.082;17.016;2022-10-31T13:14:25;14;13;
56175;PMS5003;63065;51.082;17.016;2022-10-31T13:16:49;19;15;
56175;PMS5003;63065;51.082;17.016;2022-10-31T13:19:16;16;16;
56175;PMS5003;63065;51.082;17.016;2022-10-31T13:21:52;15;15;
56175;PMS5003;63065;51.082;17.016;2022-10-31T13:24:08;13;13;
56175;PMS5003;63065;51.082;17.016;2022-10-31T13:26:35;16;16;
56175;PMS5003;63065;51.082;17.016;2022-10-31T13:28:59;16;15;
56175;PMS5003;63065;51.082;17.016;2022-10-31T13:31:22;15;14;
56175;PMS5003;63065;51.082;17.016;2022-10-31T13:33:48;29;28;
56175;PMS5003;63065;51.082;17.016;2022-10-31T13:36:15;19;19;
56175;PMS5003;63065;51.082;17.016;2022-10-31T13:38:38;16;16;
56175;PMS5003;63065;51.082;17.016;2022-10-31T13:41:04;15;15;
56175;PMS5003;63065;51.082;17.016;2022-10-31T13:43:31;20;17;
56175;PMS5003;63065;51.082;17.016;2022-10-31T13:45:54;17;13;
56175;PMS5003;63065;51.082;17.016;2022-10-31T13:53:11;19;19;
56175;PMS5003;63065;51.082;17.016;2022-10-31T13:55:37;16;16;
56175;PMS5003;63065;51.082;17.016;2022-10-31T13:58:03;18;17;
56175;PMS5003;63065;51.082;17.016;2022-10-31T14:00:27;36;33;
56175;PMS5003;63065;51.082;17.016;2022-10-31T14:02:52;16;16;
56175;PMS5003;63065;51.082;17.016;2022-10-31T14:05:21;17;17;
56175;PMS5003;63065;51.082;17.016;2022-10-31T14:07:42;13;13;
56175;PMS5003;63065;51.082;17.016;2022-10-31T14:12:34;14;14;
56175;PMS5003;63065;51.082;17.016;2022-10-31T14:14:59;14;14;
56175;PMS5003;63065;51.082;17.016;2022-10-31T14:17:24;18;16;
56175;PMS5003;63065;51.082;17.016;2022-10-31T14:22:19;16;16;
56175;PMS5003;63065;51.082;17.016;2022-10-31T14:24:40;19;18;
56175;PMS5003;63065;51.082;17.016;2022-10-31T14:29:32;20;20;
56175;PMS5003;63065;51.082;17.016;2022-10-31T14:32:04;21;18;
56175;PMS5003;63065;51.082;17.016;2022-10-31T14:34:23;20;17;
56175;PMS5003;63065;51.082;17.016;2022-10-31T14:36:53;20;19;
56175;PMS5003;63065;51.082;17.016;2022-10-31T14:39:15;19;18;
56175;PMS5003;63065;51.082;17.016;2022-10-31T14:41:45;17;17;
56175;PMS5003;63065;51.082;17.016;2022-10-31T14:46:34;19;18;
56175;PMS5003;63065;51.082;17.016;2022-10-31T14:51:22;19;18;
56175;PMS5003;63065;51.082;17.016;2022-10-31T14:53:46;22;17;
56175;PMS5003;63065;51.082;17.016;2022-10-31T14:56:12;14;14;
56175;PMS5003;63065;51.082;17.016;2022-10-31T14:58:37;15;14;
56175;PMS5003;63065;51.082;17.016;2022-10-31T15:01:02;18;16;
56175;PMS5003;63065;51.082;17.016;2022-10-31T15:03:29;17;16;
56175;PMS5003;63065;51.082;17.016;2022-10-31T15:05:53;17;17;
56175;PMS5003;63065;51.082;17.016;2022-10-31T15:10:44;22;21;
56175;PMS5003;63065;51.082;17.016;2022-10-31T15:13:08;20;18;
56175;PMS5003;63065;51.082;17.016;2022-10-31T15:15:34;19;17;
56175;PMS5003;63065;51.082;17.016;2022-10-31T15:17:59;16;15;
56175;PMS5003;63065;51.082;17.016;2022-10-31T15:20:25;18;18;
56175;PMS5003;63065;51.082;17.016;2022-10-31T15:22:50;18;18;
56175;PMS5003;63065;51.082;17.016;2022-10-31T15:25:17;18;17;
56175;PMS5003;63065;51.082;17.016;2022-10-31T15:27:41;18;17;
56175;PMS5003;63065;51.082;17.016;2022-10-31T15:32:32;19;19;
56175;PMS5003;63065;51.082;17.016;2022-10-31T15:34:58;18;18;
56175;PMS5003;63065;51.082;17.016;2022-10-31T15:37:24;26;24;
56175;PMS5003;63065;51.082;17.016;2022-10-31T15:39:49;23;22;
56175;PMS5003;63065;51.082;17.016;2022-10-31T15:42:17;27;25;
56175;PMS5003;63065;51.082;17.016;2022-10-31T15:44:40;26;26;
56175;PMS5003;63065;51.082;17.016;2022-10-31T15:47:07;26;26;
56175;PMS5003;63065;51.082;17.016;2022-10-31T15:49:33;30;29;
56175;PMS5003;63065;51.082;17.016;2022-10-31T15:51:57;29;26;
56175;PMS5003;63065;51.082;17.016;2022-10-31T15:54:22;23;23;
56175;PMS5003;63065;51.082;17.016;2022-10-31T15:56:47;28;24;
56175;PMS5003;63065;51.082;17.016;2022-10-31T15:59:16;23;23;
56175;PMS5003;63065;51.082;17.016;2022-10-31T16:01:39;26;26;
56175;PMS5003;63065;51.082;17.016;2022-10-31T16:04:05;28;28;
56175;PMS5003;63065;51.082;17.016;2022-10-31T16:06:30;20;19;
56175;PMS5003;63065;51.082;17.016;2022-10-31T16:08:55;27;23;
56175;PMS5003;63065;51.082;17.016;2022-10-31T16:11:23;28;25;
56175;PMS5003;63065;51.082;17.016;2022-10-31T16:13:53;22;21;
56175;PMS5003;63065;51.082;17.016;2022-10-31T16:16:12;28;27;
56175;PMS5003;63065;51.082;17.016;2022-10-31T16:18:38;31;31;
56175;PMS5003;63065;51.082;17.016;2022-10-31T16:21:03;26;26;